createdAt,value
2022-09-16T00:00:11.405Z,80.41
2022-09-16T00:02:40.090Z,80.32
2022-09-16T00:05:06.529Z,80.27
2022-09-16T00:07:32.755Z,80.16
2022-09-16T00:09:59.451Z,80.11
2022-09-16T00:12:25.720Z,80.02
2022-09-16T00:14:51.851Z,80.01
2022-09-16T00:17:18.060Z,79.98
2022-09-16T00:19:44.627Z,79.83
2022-09-16T00:22:11.048Z,79.72
2022-09-16T00:24:37.256Z,79.63
2022-09-16T00:27:03.768Z,79.46
2022-09-16T00:29:30.102Z,79.54
2022-09-16T00:31:56.450Z,79.39
2022-09-16T00:34:22.674Z,79.16
2022-09-16T00:36:48.782Z,79.14
2022-09-16T00:39:14.943Z,79.03
2022-09-16T00:41:41.128Z,79.17
2022-09-16T00:44:07.381Z,79.03
2022-09-16T00:46:33.807Z,78.57
2022-09-16T00:49:00.125Z,78.39
2022-09-16T00:51:26.276Z,78.46
2022-09-16T00:53:54.889Z,78.41
2022-09-16T00:56:21.093Z,78.29
2022-09-16T00:58:47.184Z,78.09
2022-09-16T01:01:13.429Z,78.24
2022-09-16T01:03:39.566Z,78.11
2022-09-16T01:06:05.703Z,78.16
2022-09-16T01:08:31.930Z,77.92
2022-09-16T01:10:58.048Z,78.00
2022-09-16T01:13:24.223Z,78.13
2022-09-16T01:15:50.430Z,78.19
2022-09-16T01:18:16.610Z,78.20
2022-09-16T01:20:42.762Z,78.13
2022-09-16T01:23:09.285Z,78.16
2022-09-16T01:25:35.410Z,78.30
2022-09-16T01:28:01.515Z,78.09
2022-09-16T01:30:29.740Z,78.34
2022-09-16T01:32:55.838Z,78.18
2022-09-16T01:35:21.932Z,78.08
2022-09-16T01:37:48.047Z,78.22
2022-09-16T01:40:14.255Z,78.25
2022-09-16T01:42:40.383Z,78.11
2022-09-16T01:45:06.578Z,78.35
2022-09-16T01:47:32.676Z,78.32
2022-09-16T01:49:58.871Z,78.44
2022-09-16T01:52:25.066Z,78.28
2022-09-16T01:54:51.243Z,78.49
2022-09-16T01:57:19.510Z,78.39
2022-09-16T01:59:45.995Z,78.52
2022-09-16T02:02:12.256Z,78.67
2022-09-16T02:04:38.427Z,78.49
2022-09-16T02:07:04.628Z,78.57
2022-09-16T02:09:30.845Z,78.65
2022-09-16T02:11:56.985Z,78.69
2022-09-16T02:14:23.223Z,78.55
2022-09-16T02:16:49.354Z,78.63
2022-09-16T02:19:15.558Z,78.78
2022-09-16T02:21:45.674Z,78.95
2022-09-16T02:24:12.266Z,78.88
2022-09-16T02:26:38.424Z,79.03
2022-09-16T02:29:04.692Z,79.26
2022-09-16T02:31:30.837Z,79.14
2022-09-16T02:33:56.982Z,79.11
2022-09-16T02:36:24.453Z,79.43
2022-09-16T02:38:50.602Z,79.29
2022-09-16T02:41:16.811Z,79.44
2022-09-16T02:43:42.978Z,79.33
2022-09-16T02:46:09.195Z,79.51
2022-09-16T02:48:35.436Z,79.53
2022-09-16T02:51:01.655Z,79.48
2022-09-16T02:53:27.843Z,79.51
2022-09-16T02:55:53.972Z,79.52
2022-09-16T02:58:20.224Z,79.37
2022-09-16T03:00:46.347Z,79.50
2022-09-16T03:03:12.586Z,79.63
2022-09-16T03:05:38.742Z,79.82
2022-09-16T03:08:04.860Z,79.95
2022-09-16T03:10:30.988Z,79.93
2022-09-16T03:12:57.127Z,79.81
2022-09-16T03:15:23.244Z,79.83
2022-09-16T03:17:49.349Z,79.57
2022-09-16T03:20:15.470Z,80.02
2022-09-16T03:22:41.601Z,80.13
2022-09-16T03:25:07.712Z,80.02
2022-09-16T03:27:34.225Z,80.06
2022-09-16T03:30:00.335Z,80.01
2022-09-16T03:32:26.443Z,80.16
2022-09-16T03:34:52.582Z,80.50
2022-09-16T03:37:18.699Z,80.20
2022-09-16T03:39:44.882Z,80.40
2022-09-16T03:42:11.038Z,80.33
2022-09-16T03:44:37.132Z,80.35
2022-09-16T03:47:03.306Z,80.44
2022-09-16T03:49:29.430Z,80.50
2022-09-16T03:51:55.577Z,80.60
2022-09-16T03:54:21.747Z,80.52
2022-09-16T03:56:47.863Z,80.48
2022-09-16T03:59:13.998Z,80.39
2022-09-16T04:01:40.163Z,80.59
2022-09-16T04:04:06.380Z,80.51
2022-09-16T04:06:32.678Z,80.39
2022-09-16T04:08:58.805Z,80.29
2022-09-16T04:11:24.936Z,80.22
2022-09-16T04:13:51.107Z,80.33
2022-09-16T04:16:17.230Z,80.10
2022-09-16T04:18:43.845Z,80.07
2022-09-16T04:21:09.975Z,79.94
2022-09-16T04:23:36.097Z,80.00
2022-09-16T04:26:02.236Z,79.89
2022-09-16T04:28:28.334Z,79.99
2022-09-16T04:30:54.493Z,79.73
2022-09-16T04:33:21.273Z,79.78
2022-09-16T04:35:47.503Z,79.63
2022-09-16T04:38:13.703Z,79.95
2022-09-16T04:40:39.860Z,79.68
2022-09-16T04:43:06.006Z,79.55
2022-09-16T04:45:32.123Z,79.59
2022-09-16T04:47:58.298Z,79.48
2022-09-16T04:50:24.401Z,79.50
2022-09-16T04:52:50.585Z,79.47
2022-09-16T04:55:16.730Z,79.37
2022-09-16T04:57:42.866Z,79.49
2022-09-16T05:00:09.081Z,79.51
2022-09-16T05:02:35.229Z,79.57
2022-09-16T05:05:01.309Z,79.50
2022-09-16T05:07:27.447Z,79.38
2022-09-16T05:09:53.986Z,79.38
2022-09-16T05:12:20.188Z,79.46
2022-09-16T05:14:48.757Z,79.45
2022-09-16T05:17:33.192Z,79.57
2022-09-16T05:20:01.131Z,79.67
2022-09-16T05:22:27.329Z,79.74
2022-09-16T05:24:53.423Z,79.72
2022-09-16T05:27:19.501Z,79.67
2022-09-16T05:29:45.648Z,79.84
2022-09-16T05:32:11.738Z,79.78
2022-09-16T05:34:37.834Z,79.88
2022-09-16T05:37:04.422Z,79.77
2022-09-16T05:39:30.654Z,79.80
2022-09-16T05:41:56.929Z,79.71
2022-09-16T05:44:23.042Z,79.85
2022-09-16T05:46:49.520Z,79.97
2022-09-16T05:49:15.648Z,79.84
2022-09-16T05:51:41.770Z,79.96
2022-09-16T05:54:08.170Z,79.87
2022-09-16T05:56:34.277Z,79.94
2022-09-16T05:59:00.553Z,79.87
2022-09-16T06:01:26.704Z,79.91
2022-09-16T06:03:55.105Z,79.61
2022-09-16T06:06:21.428Z,79.60
2022-09-16T06:08:47.507Z,79.78
2022-09-16T06:11:13.664Z,79.34
2022-09-16T06:13:39.768Z,79.25
2022-09-16T06:16:05.875Z,79.49
2022-09-16T06:18:32.034Z,79.26
2022-09-16T06:20:58.155Z,79.43
2022-09-16T06:23:24.259Z,79.03
2022-09-16T06:25:50.350Z,79.13
2022-09-16T06:28:16.770Z,79.14
2022-09-16T06:30:42.915Z,79.12
2022-09-16T06:33:09.032Z,79.13
2022-09-16T06:35:35.153Z,79.39
2022-09-16T06:38:01.258Z,79.06
2022-09-16T06:40:27.431Z,79.23
2022-09-16T06:42:57.201Z,79.25
2022-09-16T06:45:26.142Z,78.93
2022-09-16T06:47:52.241Z,79.09
2022-09-16T06:50:18.365Z,78.75
2022-09-16T06:52:44.462Z,78.75
2022-09-16T06:55:10.551Z,78.79
2022-09-16T06:57:36.699Z,78.46
2022-09-16T07:00:03.043Z,78.45
2022-09-16T07:02:29.232Z,78.48
2022-09-16T07:04:55.458Z,78.45
2022-09-16T07:07:21.557Z,78.02
2022-09-16T07:09:47.901Z,78.20
2022-09-16T07:12:18.912Z,78.03
2022-09-16T07:14:45.770Z,77.70
2022-09-16T07:17:11.927Z,77.53
2022-09-16T07:19:38.052Z,77.08
2022-09-16T07:22:04.151Z,77.07
2022-09-16T07:24:30.239Z,76.79
2022-09-16T07:26:56.329Z,76.85
2022-09-16T07:29:22.421Z,76.51
2022-09-16T07:31:48.527Z,76.35
2022-09-16T07:34:14.660Z,75.98
2022-09-16T07:36:40.755Z,75.50
2022-09-16T07:39:06.850Z,75.59
2022-09-16T07:41:32.974Z,75.32
2022-09-16T07:43:59.082Z,75.06
2022-09-16T07:46:25.187Z,74.70
2022-09-16T07:48:51.303Z,74.78
2022-09-16T07:51:17.404Z,74.61
2022-09-16T07:53:43.509Z,74.71
2022-09-16T07:56:09.641Z,74.46
2022-09-16T07:58:35.727Z,74.38
2022-09-16T08:03:48.013Z,74.16
2022-09-16T08:06:14.194Z,74.29
2022-09-16T08:08:40.286Z,74.29
2022-09-16T08:11:06.616Z,73.98
2022-09-16T08:13:32.792Z,73.95
2022-09-16T08:15:58.914Z,73.93
2022-09-16T08:18:25.345Z,73.44
2022-09-16T08:20:51.446Z,73.23
2022-09-16T08:23:17.660Z,73.19
2022-09-16T08:25:43.771Z,73.09
2022-09-16T08:28:09.866Z,72.90
2022-09-16T08:30:35.979Z,72.90
2022-09-16T08:33:02.119Z,72.69
2022-09-16T08:35:28.229Z,72.70
2022-09-16T08:37:54.341Z,73.02
2022-09-16T08:42:47.693Z,72.74
2022-09-16T08:45:13.859Z,72.76
2022-09-16T08:47:40.018Z,72.62
2022-09-16T08:50:06.138Z,72.40
2022-09-16T08:52:32.283Z,71.76
2022-09-16T08:54:58.519Z,71.74
2022-09-16T08:57:24.615Z,71.23
2022-09-16T08:59:51.097Z,71.07
2022-09-16T09:02:17.656Z,70.95
2022-09-16T09:04:44.070Z,70.26
2022-09-16T09:07:10.219Z,69.93
2022-09-16T09:09:36.353Z,69.63
2022-09-16T09:12:02.508Z,69.05
2022-09-16T09:14:28.687Z,68.48
2022-09-16T09:16:54.920Z,68.35
2022-09-16T09:19:21.158Z,67.93
2022-09-16T09:21:47.236Z,68.21
2022-09-16T09:24:13.553Z,67.86
2022-09-16T09:26:39.680Z,67.87
2022-09-16T09:29:05.781Z,67.56
2022-09-16T09:31:31.975Z,67.34
2022-09-16T09:33:58.139Z,67.02
2022-09-16T09:36:24.465Z,66.79
2022-09-16T09:38:50.598Z,66.85
2022-09-16T09:41:16.688Z,66.21
2022-09-16T09:43:42.996Z,66.15
2022-09-16T09:46:09.123Z,65.93
2022-09-16T09:48:35.269Z,65.89
2022-09-16T09:51:01.408Z,65.85
2022-09-16T09:53:27.510Z,66.12
2022-09-16T09:55:53.624Z,68.09
2022-09-16T09:58:19.744Z,70.78
2022-09-16T10:00:45.938Z,73.02
2022-09-16T10:03:12.332Z,75.06
2022-09-16T10:05:38.620Z,76.63
2022-09-16T10:08:04.748Z,77.95
2022-09-16T10:10:30.849Z,79.09
2022-09-16T10:12:56.941Z,79.76
2022-09-16T10:15:23.068Z,80.33
2022-09-16T10:17:49.163Z,80.70
2022-09-16T10:20:15.287Z,81.34
2022-09-16T10:22:41.471Z,82.06
2022-09-16T10:25:07.571Z,82.24
2022-09-16T10:27:33.672Z,82.57
2022-09-16T10:29:59.787Z,83.07
2022-09-16T10:32:26.086Z,83.08
2022-09-16T10:34:52.205Z,82.72
2022-09-16T10:37:18.334Z,82.02
2022-09-16T10:39:44.430Z,81.57
2022-09-16T10:42:10.530Z,81.13
2022-09-16T10:44:36.650Z,81.09
2022-09-16T10:47:02.768Z,80.55
2022-09-16T10:49:28.926Z,80.03
2022-09-16T10:51:55.035Z,79.00
2022-09-16T10:54:21.129Z,78.29
2022-09-16T10:56:47.221Z,77.73
2022-09-16T10:59:13.383Z,77.07
2022-09-16T11:01:42.873Z,76.77
2022-09-16T11:04:10.520Z,76.20
2022-09-16T11:06:36.641Z,75.84
2022-09-16T11:09:02.782Z,75.75
2022-09-16T11:11:29.001Z,75.24
2022-09-16T11:13:55.122Z,74.42
2022-09-16T11:16:21.252Z,73.97
2022-09-16T11:18:50.795Z,73.98
2022-09-16T11:21:19.093Z,73.58
2022-09-16T11:23:47.295Z,73.09
2022-09-16T11:26:13.418Z,72.48
2022-09-16T11:28:40.033Z,71.92
2022-09-16T11:31:06.176Z,71.30
2022-09-16T11:33:32.283Z,71.18
2022-09-16T11:35:58.539Z,70.66
2022-09-16T11:38:24.661Z,70.39
2022-09-16T11:40:50.751Z,70.07
2022-09-16T11:43:16.860Z,70.14
2022-09-16T11:45:42.972Z,70.18
2022-09-16T11:48:09.105Z,70.22
2022-09-16T11:50:35.209Z,70.32
2022-09-16T11:53:04.932Z,70.31
2022-09-16T11:55:31.620Z,70.33
2022-09-16T11:57:58.039Z,70.53
2022-09-16T12:00:24.131Z,70.25
2022-09-16T12:02:50.286Z,70.24
2022-09-16T12:05:16.461Z,70.35
2022-09-16T12:07:42.631Z,69.62
2022-09-16T12:10:08.740Z,69.70
2022-09-16T12:12:34.854Z,69.47
2022-09-16T12:15:04.846Z,69.35
2022-09-16T12:17:31.850Z,69.21
2022-09-16T12:19:57.957Z,68.94
2022-09-16T12:22:24.078Z,68.92
2022-09-16T12:24:50.188Z,68.79
2022-09-16T12:27:16.337Z,68.85
2022-09-16T12:29:42.442Z,69.13
2022-09-16T12:32:08.533Z,69.30
2022-09-16T12:34:34.664Z,68.86
2022-09-16T12:37:00.746Z,68.66
2022-09-16T12:39:26.831Z,68.38
2022-09-16T12:41:52.932Z,68.28
2022-09-16T12:44:33.550Z,68.38
2022-09-16T12:47:00.305Z,68.57
2022-09-16T12:49:26.406Z,67.35
2022-09-16T12:51:52.520Z,67.25
2022-09-16T12:54:18.634Z,66.65
2022-09-16T12:56:44.729Z,66.47
2022-09-16T12:59:10.829Z,66.23
2022-09-16T13:01:37.161Z,66.69
2022-09-16T13:04:03.500Z,67.49
2022-09-16T13:06:29.828Z,69.00
2022-09-16T13:08:56.187Z,69.83
2022-09-16T13:12:24.123Z,70.49
2022-09-16T13:14:10.402Z,71.20
2022-09-16T13:16:36.668Z,71.95
2022-09-16T13:19:02.954Z,72.23
2022-09-16T13:21:29.347Z,72.21
2022-09-16T13:23:55.549Z,72.23
2022-09-16T13:26:21.786Z,72.23
2022-09-16T13:28:48.010Z,72.96
2022-09-16T13:31:14.278Z,73.65
2022-09-16T13:33:40.530Z,74.81
2022-09-16T13:36:07.137Z,75.79
2022-09-16T13:38:33.302Z,76.41
2022-09-16T13:40:59.414Z,77.01
2022-09-16T13:43:25.601Z,77.10
2022-09-16T13:45:51.752Z,77.45
2022-09-16T13:48:17.875Z,77.40
2022-09-16T13:50:43.964Z,77.10
2022-09-16T13:53:10.085Z,76.92
2022-09-16T13:55:36.293Z,76.93
2022-09-16T13:58:02.670Z,76.70
2022-09-16T14:00:32.448Z,76.53
2022-09-16T14:03:01.753Z,76.30
2022-09-16T14:05:27.924Z,76.17
2022-09-16T14:07:54.060Z,76.01
2022-09-16T14:10:20.204Z,76.01
2022-09-16T14:12:46.337Z,75.83
2022-09-16T14:15:12.666Z,75.84
2022-09-16T14:17:38.764Z,76.14
2022-09-16T14:20:04.958Z,75.99
2022-09-16T14:22:31.112Z,76.02
2022-09-16T14:25:06.507Z,76.21
2022-09-16T14:27:39.028Z,76.33
2022-09-16T14:30:05.199Z,76.75
2022-09-16T14:32:31.327Z,77.10
2022-09-16T14:34:57.449Z,77.29
2022-09-16T14:37:23.551Z,77.45
2022-09-16T14:39:54.484Z,77.47
2022-09-16T14:42:21.290Z,77.71
2022-09-16T14:44:47.404Z,77.57
2022-09-16T14:47:21.917Z,77.52
2022-09-16T14:49:55.731Z,77.49
2022-09-16T14:52:21.871Z,77.43
2022-09-16T14:54:47.981Z,77.14
2022-09-16T14:57:14.124Z,77.00
2022-09-16T14:59:40.230Z,76.61
2022-09-16T15:02:06.334Z,76.25
2022-09-16T15:04:32.928Z,75.40
2022-09-16T15:07:03.533Z,74.62
2022-09-16T15:09:30.028Z,73.68
2022-09-16T15:11:56.138Z,72.23
2022-09-16T15:14:22.236Z,70.73
2022-09-16T15:16:48.376Z,68.52
2022-09-16T15:19:14.487Z,65.42
2022-09-16T15:21:40.602Z,62.85
2022-09-16T15:24:06.688Z,60.60
2022-09-16T15:26:32.796Z,58.48
2022-09-16T15:28:59.120Z,56.84
2022-09-16T15:31:25.315Z,56.00
2022-09-16T15:33:51.559Z,54.77
2022-09-16T15:36:17.740Z,53.93
2022-09-16T15:38:44.804Z,53.49
2022-09-16T15:41:11.099Z,52.87
2022-09-16T15:43:37.186Z,52.49
2022-09-16T15:46:03.390Z,51.82
2022-09-16T15:48:29.843Z,51.70
2022-09-16T15:50:55.937Z,51.58
2022-09-16T15:53:22.083Z,51.46
2022-09-16T15:55:48.191Z,51.62
2022-09-16T15:58:14.285Z,52.12
2022-09-16T16:00:40.373Z,52.46
2022-09-16T16:03:06.478Z,53.28
2022-09-16T16:05:32.579Z,54.43
2022-09-16T16:07:58.660Z,55.66
2022-09-16T16:10:24.762Z,56.22
2022-09-16T16:12:50.879Z,57.19
2022-09-16T16:15:16.993Z,58.08
2022-09-16T16:17:43.097Z,58.08
2022-09-16T16:20:09.194Z,58.01
2022-09-16T16:22:35.420Z,58.91
2022-09-16T16:25:01.543Z,60.17
2022-09-16T16:27:27.643Z,61.21
2022-09-16T16:29:53.811Z,61.81
2022-09-16T16:32:19.939Z,62.74
2022-09-16T16:34:46.033Z,63.55
2022-09-16T16:37:28.020Z,64.37
2022-09-16T16:39:58.330Z,66.12
2022-09-16T16:42:24.519Z,66.56
2022-09-16T16:44:50.629Z,67.78
2022-09-16T16:47:16.765Z,70.48
2022-09-16T16:49:42.858Z,74.15
2022-09-16T16:52:08.948Z,76.92
2022-09-16T16:54:35.062Z,78.98
2022-09-16T16:57:01.165Z,80.52
2022-09-16T16:59:27.300Z,81.55
2022-09-16T17:01:53.476Z,82.48
2022-09-16T17:04:19.585Z,83.32
2022-09-16T17:06:45.682Z,84.06
2022-09-16T17:09:15.688Z,84.56
2022-09-16T17:11:42.090Z,85.25
2022-09-16T17:14:08.302Z,85.64
2022-09-16T17:16:34.409Z,86.25
2022-09-16T17:19:00.501Z,86.60
2022-09-16T17:21:26.614Z,87.01
2022-09-16T17:23:52.730Z,87.36
2022-09-16T17:26:18.827Z,87.73
2022-09-16T17:28:44.914Z,87.99
2022-09-16T17:31:11.138Z,88.21
2022-09-16T17:33:37.283Z,88.37
2022-09-16T17:36:03.414Z,88.80
2022-09-16T17:38:29.534Z,88.90
2022-09-16T17:40:55.663Z,89.17
2022-09-16T17:43:21.773Z,89.31
2022-09-16T17:45:47.921Z,89.53
2022-09-16T17:48:14.043Z,89.70
2022-09-16T17:50:40.140Z,90.07
2022-09-16T17:53:06.328Z,90.12
2022-09-16T17:55:32.446Z,90.22
2022-09-16T17:57:58.558Z,90.49
2022-09-16T18:00:24.669Z,90.72
2022-09-16T18:02:50.802Z,90.78
2022-09-16T18:05:16.999Z,90.96
2022-09-16T18:07:43.195Z,90.93
2022-09-16T18:10:09.286Z,91.15
2022-09-16T18:12:35.364Z,90.81
2022-09-16T18:15:01.477Z,91.19
2022-09-16T18:17:27.582Z,91.19
2022-09-16T18:19:53.686Z,91.15
2022-09-16T18:22:19.788Z,91.20
2022-09-16T18:24:45.951Z,91.25
2022-09-16T18:27:12.091Z,91.39
2022-09-16T18:29:38.206Z,91.53
2022-09-16T18:32:04.287Z,91.77
2022-09-16T18:34:33.497Z,91.64
2022-09-16T18:36:59.920Z,91.97
2022-09-16T18:39:26.016Z,91.73
2022-09-16T18:41:52.104Z,92.15
2022-09-16T18:44:18.204Z,92.09
2022-09-16T18:46:44.342Z,92.29
2022-09-16T18:49:10.464Z,92.14
2022-09-16T18:51:36.588Z,92.45
2022-09-16T18:54:02.692Z,92.29
2022-09-16T18:56:28.794Z,92.55
2022-09-16T18:59:19.749Z,92.37
2022-09-16T19:01:41.222Z,92.70
2022-09-16T19:04:07.609Z,92.90
2022-09-16T19:06:33.742Z,92.98
2022-09-16T19:08:59.840Z,92.69
2022-09-16T19:11:25.946Z,93.09
2022-09-16T19:13:52.049Z,93.01
2022-09-16T19:16:18.153Z,93.24
2022-09-16T19:18:44.253Z,93.39
2022-09-16T19:21:10.345Z,93.39
2022-09-16T19:23:36.560Z,93.60
2022-09-16T19:26:02.687Z,93.69
2022-09-16T19:28:28.784Z,93.66
2022-09-16T19:30:54.883Z,94.08
2022-09-16T19:33:21.002Z,93.71
2022-09-16T19:35:47.096Z,93.70
2022-09-16T19:38:13.182Z,93.97
2022-09-16T19:40:39.372Z,93.98
2022-09-16T19:43:05.472Z,94.12
2022-09-16T19:45:31.602Z,94.11
2022-09-16T19:47:57.722Z,94.19
2022-09-16T19:50:23.804Z,94.22
2022-09-16T19:52:52.334Z,94.43
2022-09-16T19:55:18.499Z,94.57
2022-09-16T19:57:44.657Z,94.74
2022-09-16T20:00:10.746Z,94.77
2022-09-16T20:02:36.939Z,94.91
2022-09-16T20:05:04.991Z,94.83
2022-09-16T20:07:34.436Z,94.92
2022-09-16T20:10:00.571Z,95.04
2022-09-16T20:12:26.732Z,95.26
2022-09-16T20:14:52.834Z,95.35
2022-09-16T20:17:18.990Z,95.30
2022-09-16T20:19:45.270Z,95.54
2022-09-16T20:22:11.654Z,95.60
2022-09-16T20:24:37.769Z,95.65
2022-09-16T20:27:03.851Z,95.76
2022-09-16T20:29:29.946Z,95.89
2022-09-16T20:31:56.131Z,95.67
2022-09-16T20:34:22.283Z,95.78
2022-09-16T20:36:48.364Z,95.99
2022-09-16T20:39:14.498Z,96.22
2022-09-16T20:41:40.593Z,96.11
2022-09-16T20:44:06.681Z,96.29
2022-09-16T20:46:32.795Z,96.26
2022-09-16T20:48:58.895Z,96.40
2022-09-16T20:51:25.001Z,96.38
2022-09-16T20:53:51.134Z,96.35
2022-09-16T20:56:17.225Z,96.58
2022-09-16T20:58:43.326Z,96.46
2022-09-16T21:01:09.549Z,96.58
2022-09-16T21:03:35.700Z,96.62
2022-09-16T21:06:01.793Z,96.74
2022-09-16T21:08:33.231Z,96.83
2022-09-16T21:11:00.122Z,96.83
2022-09-16T21:13:26.224Z,96.67
2022-09-16T21:15:52.344Z,96.84
2022-09-16T21:18:18.462Z,96.93
2022-09-16T21:20:44.545Z,96.89
2022-09-16T21:23:10.663Z,97.04
2022-09-16T21:25:36.753Z,96.97
2022-09-16T21:28:02.887Z,97.00
2022-09-16T21:30:29.097Z,96.92
2022-09-16T21:32:55.201Z,96.84
2022-09-16T21:35:21.305Z,97.02
2022-09-16T21:40:31.331Z,96.87
2022-09-16T21:42:57.553Z,96.81
2022-09-16T21:45:23.647Z,96.74
2022-09-16T21:47:49.746Z,96.88
2022-09-16T21:50:15.854Z,96.64
2022-09-16T21:52:41.936Z,96.78
2022-09-16T21:55:08.052Z,96.75
2022-09-16T21:57:34.154Z,96.80
2022-09-16T22:00:00.286Z,96.68
2022-09-16T22:02:29.102Z,96.48
2022-09-16T22:04:55.419Z,96.62
2022-09-16T22:07:21.521Z,96.67
2022-09-16T22:09:47.606Z,96.29
2022-09-16T22:12:13.719Z,96.16
2022-09-16T22:14:39.820Z,96.08
2022-09-16T22:17:05.944Z,95.81
2022-09-16T22:19:32.042Z,95.60
2022-09-16T22:21:58.143Z,95.22
2022-09-16T22:24:24.250Z,95.20
2022-09-16T22:26:50.365Z,94.84
2022-09-16T22:29:16.478Z,94.66
2022-09-16T22:31:42.602Z,94.46
2022-09-16T22:34:08.753Z,94.20
2022-09-16T22:36:34.851Z,93.85
2022-09-16T22:39:01.031Z,93.63
2022-09-16T22:41:27.178Z,93.36
2022-09-16T22:43:53.282Z,93.12
2022-09-16T22:46:19.459Z,92.82
2022-09-16T22:48:45.648Z,92.87
2022-09-16T22:51:11.739Z,92.68
2022-09-16T22:53:37.845Z,92.42
2022-09-16T22:56:03.969Z,92.26
2022-09-16T22:58:30.048Z,92.09
2022-09-16T23:00:56.152Z,91.91
2022-09-16T23:03:22.263Z,91.79
2022-09-16T23:05:48.366Z,91.82
2022-09-16T23:08:14.533Z,91.51
2022-09-16T23:10:40.662Z,91.58
2022-09-16T23:13:06.762Z,91.67
2022-09-16T23:15:32.861Z,91.72
2022-09-16T23:17:59.267Z,91.70
2022-09-16T23:20:25.353Z,91.60
2022-09-16T23:22:51.446Z,91.77
2022-09-16T23:25:17.592Z,91.62
2022-09-16T23:27:43.700Z,91.93
2022-09-16T23:30:09.806Z,91.58
2022-09-16T23:32:35.954Z,91.88
2022-09-16T23:35:02.078Z,91.86
2022-09-16T23:37:28.190Z,91.90
2022-09-16T23:39:54.411Z,92.13
2022-09-16T23:42:20.622Z,92.19
2022-09-16T23:44:46.718Z,92.12
2022-09-16T23:47:12.923Z,92.29
2022-09-16T23:49:39.021Z,92.32
2022-09-16T23:52:05.130Z,92.52
2022-09-16T23:54:31.287Z,92.68
2022-09-16T23:56:57.428Z,92.73
2022-09-16T23:59:23.566Z,92.65
